sensor_id;sensor_type;location;lat;lon;timestamp;temperature;humidity
19972;DHT22;10147;16.402;102.848;2023-11-21T00:01:14;20.80;99.90
19972;DHT22;10147;16.402;102.848;2023-11-21T00:03:44;20.90;99.90
19972;DHT22;10147;16.402;102.848;2023-11-21T00:06:14;21.00;99.90
19972;DHT22;10147;16.402;102.848;2023-11-21T00:08:44;21.00;99.90
19972;DHT22;10147;16.402;102.848;2023-11-21T00:11:14;21.10;99.90
19972;DHT22;10147;16.402;102.848;2023-11-21T00:13:44;21.10;99.90
19972;DHT22;10147;16.402;102.848;2023-11-21T00:16:18;21.00;99.90
19972;DHT22;10147;16.402;102.848;2023-11-21T00:18:48;21.10;99.90
19972;DHT22;10147;16.402;102.848;2023-11-21T00:21:18;21.20;99.90
19972;DHT22;10147;16.402;102.848;2023-11-21T00:23:48;21.20;99.90
19972;DHT22;10147;16.402;102.848;2023-11-21T00:26:18;21.30;99.90
19972;DHT22;10147;16.402;102.848;2023-11-21T00:28:57;21.30;99.90
19972;DHT22;10147;16.402;102.848;2023-11-21T00:31:28;21.40;99.90
19972;DHT22;10147;16.402;102.848;2023-11-21T00:33:59;21.30;99.90
19972;DHT22;10147;16.402;102.848;2023-11-21T00:36:29;21.50;99.90
19972;DHT22;10147;16.402;102.848;2023-11-21T00:38:59;21.60;99.90
19972;DHT22;10147;16.402;102.848;2023-11-21T00:41:29;21.50;99.90
19972;DHT22;10147;16.402;102.848;2023-11-21T00:43:59;21.60;99.90
19972;DHT22;10147;16.402;102.848;2023-11-21T00:46:31;21.70;99.90
19972;DHT22;10147;16.402;102.848;2023-11-21T00:49:02;21.80;99.90
19972;DHT22;10147;16.402;102.848;2023-11-21T00:51:34;21.90;99.90
19972;DHT22;10147;16.402;102.848;2023-11-21T00:54:04;21.90;99.90
19972;DHT22;10147;16.402;102.848;2023-11-21T00:56:36;22.10;99.90
19972;DHT22;10147;16.402;102.848;2023-11-21T00:59:06;22.30;99.90
19972;DHT22;10147;16.402;102.848;2023-11-21T01:01:36;22.40;99.90
19972;DHT22;10147;16.402;102.848;2023-11-21T01:04:07;22.40;99.90
19972;DHT22;10147;16.402;102.848;2023-11-21T01:06:37;22.40;99.90
19972;DHT22;10147;16.402;102.848;2023-11-21T01:09:09;22.50;99.90
19972;DHT22;10147;16.402;102.848;2023-11-21T01:11:39;22.70;99.90
19972;DHT22;10147;16.402;102.848;2023-11-21T01:14:08;22.70;99.90
19972;DHT22;10147;16.402;102.848;2023-11-21T01:16:40;22.80;99.90
19972;DHT22;10147;16.402;102.848;2023-11-21T01:19:10;22.80;99.90
19972;DHT22;10147;16.402;102.848;2023-11-21T01:21:40;23.10;99.90
19972;DHT22;10147;16.402;102.848;2023-11-21T01:24:10;23.20;99.90
19972;DHT22;10147;16.402;102.848;2023-11-21T01:26:40;23.20;99.90
19972;DHT22;10147;16.402;102.848;2023-11-21T01:29:14;23.50;99.90
19972;DHT22;10147;16.402;102.848;2023-11-21T01:31:44;23.50;99.90
19972;DHT22;10147;16.402;102.848;2023-11-21T01:34:14;23.60;99.90
19972;DHT22;10147;16.402;102.848;2023-11-21T01:36:46;23.50;99.90
19972;DHT22;10147;16.402;102.848;2023-11-21T01:39:16;23.60;99.90
19972;DHT22;10147;16.402;102.848;2023-11-21T01:41:52;23.70;99.90
19972;DHT22;10147;16.402;102.848;2023-11-21T01:44:22;23.80;99.90
19972;DHT22;10147;16.402;102.848;2023-11-21T01:46:54;23.90;99.90
19972;DHT22;10147;16.402;102.848;2023-11-21T01:49:24;23.80;99.90
19972;DHT22;10147;16.402;102.848;2023-11-21T01:51:54;23.80;99.90
19972;DHT22;10147;16.402;102.848;2023-11-21T01:54:24;24.10;99.90
19972;DHT22;10147;16.402;102.848;2023-11-21T01:56:55;24.10;99.90
19972;DHT22;10147;16.402;102.848;2023-11-21T01:59:26;24.50;99.90
19972;DHT22;10147;16.402;102.848;2023-11-21T02:01:57;24.40;99.90
19972;DHT22;10147;16.402;102.848;2023-11-21T02:04:27;24.50;99.90
19972;DHT22;10147;16.402;102.848;2023-11-21T02:06:57;24.50;99.90
19972;DHT22;10147;16.402;102.848;2023-11-21T02:09:28;24.50;99.90
19972;DHT22;10147;16.402;102.848;2023-11-21T02:12:07;24.80;99.90
19972;DHT22;10147;16.402;102.848;2023-11-21T02:14:39;25.00;99.90
19972;DHT22;10147;16.402;102.848;2023-11-21T02:17:10;24.90;99.90
19972;DHT22;10147;16.402;102.848;2023-11-21T02:19:40;25.10;99.90
19972;DHT22;10147;16.402;102.848;2023-11-21T02:22:11;25.20;99.90
19972;DHT22;10147;16.402;102.848;2023-11-21T02:24:42;25.20;99.90
19972;DHT22;10147;16.402;102.848;2023-11-21T02:27:13;25.40;99.90
19972;DHT22;10147;16.402;102.848;2023-11-21T02:29:52;25.40;99.90
19972;DHT22;10147;16.402;102.848;2023-11-21T02:32:23;25.50;99.90
19972;DHT22;10147;16.402;102.848;2023-11-21T02:35:15;25.50;99.90
19972;DHT22;10147;16.402;102.848;2023-11-21T02:37:45;25.70;99.90
19972;DHT22;10147;16.402;102.848;2023-11-21T02:40:16;25.80;99.90
19972;DHT22;10147;16.402;102.848;2023-11-21T02:42:50;26.00;99.90
19972;DHT22;10147;16.402;102.848;2023-11-21T02:45:24;26.00;99.90
19972;DHT22;10147;16.402;102.848;2023-11-21T02:47:54;26.20;99.90
19972;DHT22;10147;16.402;102.848;2023-11-21T02:50:27;26.30;99.90
19972;DHT22;10147;16.402;102.848;2023-11-21T02:52:57;26.50;99.90
19972;DHT22;10147;16.402;102.848;2023-11-21T02:55:30;26.40;99.90
19972;DHT22;10147;16.402;102.848;2023-11-21T02:58:00;26.60;99.90
19972;DHT22;10147;16.402;102.848;2023-11-21T03:00:30;26.50;99.90
19972;DHT22;10147;16.402;102.848;2023-11-21T03:03:00;26.60;99.90
19972;DHT22;10147;16.402;102.848;2023-11-21T03:05:30;26.50;99.90
19972;DHT22;10147;16.402;102.848;2023-11-21T03:08:28;26.60;99.90
19972;DHT22;10147;16.402;102.848;2023-11-21T03:10:59;26.60;99.90
19972;DHT22;10147;16.402;102.848;2023-11-21T03:13:29;26.90;99.90
19972;DHT22;10147;16.402;102.848;2023-11-21T03:15:59;26.80;99.90
19972;DHT22;10147;16.402;102.848;2023-11-21T03:18:29;26.90;99.90
19972;DHT22;10147;16.402;102.848;2023-11-21T03:20:59;27.20;99.90
19972;DHT22;10147;16.402;102.848;2023-11-21T03:23:29;27.30;99.90
19972;DHT22;10147;16.402;102.848;2023-11-21T03:26:00;27.50;99.90
19972;DHT22;10147;16.402;102.848;2023-11-21T03:28:31;27.60;99.90
19972;DHT22;10147;16.402;102.848;2023-11-21T03:31:03;27.40;99.90
19972;DHT22;10147;16.402;102.848;2023-11-21T03:33:34;27.60;99.90
19972;DHT22;10147;16.402;102.848;2023-11-21T03:36:05;27.80;99.90
19972;DHT22;10147;16.402;102.848;2023-11-21T03:38:37;27.90;99.90
19972;DHT22;10147;16.402;102.848;2023-11-21T03:41:07;27.80;99.90
19972;DHT22;10147;16.402;102.848;2023-11-21T03:43:41;27.50;99.90
19972;DHT22;10147;16.402;102.848;2023-11-21T03:46:14;27.60;99.90
19972;DHT22;10147;16.402;102.848;2023-11-21T03:48:44;27.80;99.90
19972;DHT22;10147;16.402;102.848;2023-11-21T03:51:16;28.10;99.90
19972;DHT22;10147;16.402;102.848;2023-11-21T03:53:47;28.10;99.90
19972;DHT22;10147;16.402;102.848;2023-11-21T03:56:17;28.00;99.90
19972;DHT22;10147;16.402;102.848;2023-11-21T03:58:47;27.90;99.90
19972;DHT22;10147;16.402;102.848;2023-11-21T04:01:23;27.90;99.90
19972;DHT22;10147;16.402;102.848;2023-11-21T04:03:54;28.20;99.90
19972;DHT22;10147;16.402;102.848;2023-11-21T04:06:24;28.40;99.90
19972;DHT22;10147;16.402;102.848;2023-11-21T04:08:54;28.40;99.90
19972;DHT22;10147;16.402;102.848;2023-11-21T04:11:24;28.70;99.90
19972;DHT22;10147;16.402;102.848;2023-11-21T04:13:54;28.50;99.90
19972;DHT22;10147;16.402;102.848;2023-11-21T04:16:25;28.50;99.90
19972;DHT22;10147;16.402;102.848;2023-11-21T04:18:58;28.70;99.90
19972;DHT22;10147;16.402;102.848;2023-11-21T04:21:31;28.60;99.90
19972;DHT22;10147;16.402;102.848;2023-11-21T04:24:02;28.80;99.90
19972;DHT22;10147;16.402;102.848;2023-11-21T04:26:32;28.70;99.90
19972;DHT22;10147;16.402;102.848;2023-11-21T04:29:02;28.70;99.90
19972;DHT22;10147;16.402;102.848;2023-11-21T04:31:34;28.90;99.90
19972;DHT22;10147;16.402;102.848;2023-11-21T04:34:04;28.90;99.90
19972;DHT22;10147;16.402;102.848;2023-11-21T04:36:38;28.90;99.90
19972;DHT22;10147;16.402;102.848;2023-11-21T04:39:09;29.20;99.90
19972;DHT22;10147;16.402;102.848;2023-11-21T04:41:40;29.40;99.90
19972;DHT22;10147;16.402;102.848;2023-11-21T04:44:10;29.60;99.90
19972;DHT22;10147;16.402;102.848;2023-11-21T04:46:40;29.80;99.90
19972;DHT22;10147;16.402;102.848;2023-11-21T04:49:10;29.60;99.90
19972;DHT22;10147;16.402;102.848;2023-11-21T04:51:40;29.40;99.90
19972;DHT22;10147;16.402;102.848;2023-11-21T04:54:10;29.40;99.90
19972;DHT22;10147;16.402;102.848;2023-11-21T04:56:40;29.50;99.90
19972;DHT22;10147;16.402;102.848;2023-11-21T04:59:11;29.60;99.90
19972;DHT22;10147;16.402;102.848;2023-11-21T05:01:41;29.60;99.90
19972;DHT22;10147;16.402;102.848;2023-11-21T05:04:11;29.50;99.90
19972;DHT22;10147;16.402;102.848;2023-11-21T05:06:41;29.50;99.90
19972;DHT22;10147;16.402;102.848;2023-11-21T05:09:11;29.90;99.90
19972;DHT22;10147;16.402;102.848;2023-11-21T05:11:41;30.20;99.90
19972;DHT22;10147;16.402;102.848;2023-11-21T05:14:11;30.30;99.90
19972;DHT22;10147;16.402;102.848;2023-11-21T05:16:43;30.20;99.90
19972;DHT22;10147;16.402;102.848;2023-11-21T05:19:13;30.20;99.90
19972;DHT22;10147;16.402;102.848;2023-11-21T05:21:43;30.50;99.90
19972;DHT22;10147;16.402;102.848;2023-11-21T05:24:12;30.10;99.90
19972;DHT22;10147;16.402;102.848;2023-11-21T05:26:42;30.10;99.90
19972;DHT22;10147;16.402;102.848;2023-11-21T05:29:12;30.30;99.90
19972;DHT22;10147;16.402;102.848;2023-11-21T05:31:43;30.50;99.90
19972;DHT22;10147;16.402;102.848;2023-11-21T05:34:13;30.60;99.90
19972;DHT22;10147;16.402;102.848;2023-11-21T05:36:46;30.50;99.90
19972;DHT22;10147;16.402;102.848;2023-11-21T05:39:16;30.30;99.90
19972;DHT22;10147;16.402;102.848;2023-11-21T05:41:50;30.50;99.90
19972;DHT22;10147;16.402;102.848;2023-11-21T05:44:20;30.80;99.90
19972;DHT22;10147;16.402;102.848;2023-11-21T05:46:50;30.80;99.90
19972;DHT22;10147;16.402;102.848;2023-11-21T05:49:22;30.90;99.90
19972;DHT22;10147;16.402;102.848;2023-11-21T05:51:55;30.50;99.90
19972;DHT22;10147;16.402;102.848;2023-11-21T05:54:29;30.40;99.90
19972;DHT22;10147;16.402;102.848;2023-11-21T05:56:59;30.70;99.90
19972;DHT22;10147;16.402;102.848;2023-11-21T05:59:30;31.20;99.90
19972;DHT22;10147;16.402;102.848;2023-11-21T06:02:00;30.70;99.90
19972;DHT22;10147;16.402;102.848;2023-11-21T06:04:31;30.50;99.90
19972;DHT22;10147;16.402;102.848;2023-11-21T06:07:01;30.80;99.90
19972;DHT22;10147;16.402;102.848;2023-11-21T06:09:32;30.80;99.90
19972;DHT22;10147;16.402;102.848;2023-11-21T06:12:01;31.10;99.90
19972;DHT22;10147;16.402;102.848;2023-11-21T06:14:32;31.00;99.90
19972;DHT22;10147;16.402;102.848;2023-11-21T06:17:04;31.40;99.90
19972;DHT22;10147;16.402;102.848;2023-11-21T06:19:34;31.70;99.90
19972;DHT22;10147;16.402;102.848;2023-11-21T06:22:04;31.30;99.90
19972;DHT22;10147;16.402;102.848;2023-11-21T06:24:35;31.00;99.90
19972;DHT22;10147;16.402;102.848;2023-11-21T06:27:05;30.80;99.90
19972;DHT22;10147;16.402;102.848;2023-11-21T06:29:38;31.10;99.90
19972;DHT22;10147;16.402;102.848;2023-11-21T06:32:10;31.20;99.90
19972;DHT22;10147;16.402;102.848;2023-11-21T06:34:40;31.10;99.90
19972;DHT22;10147;16.402;102.848;2023-11-21T06:37:13;31.00;99.90
19972;DHT22;10147;16.402;102.848;2023-11-21T06:39:43;31.10;99.90
19972;DHT22;10147;16.402;102.848;2023-11-21T06:42:13;31.50;99.90
19972;DHT22;10147;16.402;102.848;2023-11-21T06:44:45;31.80;99.90
19972;DHT22;10147;16.402;102.848;2023-11-21T06:47:15;31.50;99.90
19972;DHT22;10147;16.402;102.848;2023-11-21T06:49:45;31.80;99.90
19972;DHT22;10147;16.402;102.848;2023-11-21T06:52:20;31.90;99.90
19972;DHT22;10147;16.402;102.848;2023-11-21T06:54:50;31.70;99.90
19972;DHT22;10147;16.402;102.848;2023-11-21T06:57:22;31.50;99.90
19972;DHT22;10147;16.402;102.848;2023-11-21T06:59:53;31.40;99.90
19972;DHT22;10147;16.402;102.848;2023-11-21T07:02:23;31.40;99.90
19972;DHT22;10147;16.402;102.848;2023-11-21T07:04:54;31.00;99.90
19972;DHT22;10147;16.402;102.848;2023-11-21T07:07:24;31.20;99.90
19972;DHT22;10147;16.402;102.848;2023-11-21T07:09:54;31.50;99.90
19972;DHT22;10147;16.402;102.848;2023-11-21T07:12:31;31.80;99.90
19972;DHT22;10147;16.402;102.848;2023-11-21T07:15:04;32.00;99.90
19972;DHT22;10147;16.402;102.848;2023-11-21T07:17:38;32.00;99.90
19972;DHT22;10147;16.402;102.848;2023-11-21T07:20:10;32.10;99.90
19972;DHT22;10147;16.402;102.848;2023-11-21T07:22:40;32.20;99.90
19972;DHT22;10147;16.402;102.848;2023-11-21T07:25:10;32.30;99.90
19972;DHT22;10147;16.402;102.848;2023-11-21T07:27:40;32.00;99.90
19972;DHT22;10147;16.402;102.848;2023-11-21T07:30:17;32.00;99.90
19972;DHT22;10147;16.402;102.848;2023-11-21T07:32:47;32.30;99.90
19972;DHT22;10147;16.402;102.848;2023-11-21T07:35:18;32.30;99.90
19972;DHT22;10147;16.402;102.848;2023-11-21T07:37:48;32.10;99.90
19972;DHT22;10147;16.402;102.848;2023-11-21T07:40:18;32.10;99.90
19972;DHT22;10147;16.402;102.848;2023-11-21T07:42:48;31.90;99.90
19972;DHT22;10147;16.402;102.848;2023-11-21T07:45:19;32.20;99.90
19972;DHT22;10147;16.402;102.848;2023-11-21T07:47:51;32.30;99.90
19972;DHT22;10147;16.402;102.848;2023-11-21T07:50:22;32.30;99.90
19972;DHT22;10147;16.402;102.848;2023-11-21T07:52:52;32.10;99.90
19972;DHT22;10147;16.402;102.848;2023-11-21T07:55:24;31.80;99.60
19972;DHT22;10147;16.402;102.848;2023-11-21T07:57:54;31.50;99.90
19972;DHT22;10147;16.402;102.848;2023-11-21T08:00:24;31.90;99.90
19972;DHT22;10147;16.402;102.848;2023-11-21T08:02:54;31.50;99.60
19972;DHT22;10147;16.402;102.848;2023-11-21T08:05:25;31.80;99.30
19972;DHT22;10147;16.402;102.848;2023-11-21T08:08:04;31.90;98.00
19972;DHT22;10147;16.402;102.848;2023-11-21T08:10:34;32.00;97.40
19972;DHT22;10147;16.402;102.848;2023-11-21T08:13:08;32.20;98.00
19972;DHT22;10147;16.402;102.848;2023-11-21T08:15:38;32.10;98.50
19972;DHT22;10147;16.402;102.848;2023-11-21T08:18:08;32.20;98.90
19972;DHT22;10147;16.402;102.848;2023-11-21T08:20:38;32.20;98.70
19972;DHT22;10147;16.402;102.848;2023-11-21T08:23:09;32.20;98.90
19972;DHT22;10147;16.402;102.848;2023-11-21T08:25:44;31.90;97.40
19972;DHT22;10147;16.402;102.848;2023-11-21T08:28:14;31.50;97.10
19972;DHT22;10147;16.402;102.848;2023-11-21T08:30:45;31.30;96.60
19972;DHT22;10147;16.402;102.848;2023-11-21T08:33:16;31.50;96.60
19972;DHT22;10147;16.402;102.848;2023-11-21T08:35:46;31.30;96.60
19972;DHT22;10147;16.402;102.848;2023-11-21T08:38:16;31.50;97.30
19972;DHT22;10147;16.402;102.848;2023-11-21T08:40:47;31.80;98.10
19972;DHT22;10147;16.402;102.848;2023-11-21T08:43:17;31.80;98.20
19972;DHT22;10147;16.402;102.848;2023-11-21T08:45:49;31.70;98.70
19972;DHT22;10147;16.402;102.848;2023-11-21T08:48:19;31.80;96.10
19972;DHT22;10147;16.402;102.848;2023-11-21T08:50:49;31.70;96.30
19972;DHT22;10147;16.402;102.848;2023-11-21T08:53:20;31.80;95.90
19972;DHT22;10147;16.402;102.848;2023-11-21T08:55:51;31.30;98.10
19972;DHT22;10147;16.402;102.848;2023-11-21T08:58:23;31.30;96.50
19972;DHT22;10147;16.402;102.848;2023-11-21T09:00:53;31.20;97.70
19972;DHT22;10147;16.402;102.848;2023-11-21T09:03:23;31.30;97.10
19972;DHT22;10147;16.402;102.848;2023-11-21T09:05:53;31.10;97.70
19972;DHT22;10147;16.402;102.848;2023-11-21T09:08:23;31.20;96.80
19972;DHT22;10147;16.402;102.848;2023-11-21T09:10:53;31.30;96.00
19972;DHT22;10147;16.402;102.848;2023-11-21T09:13:23;31.30;95.60
19972;DHT22;10147;16.402;102.848;2023-11-21T09:15:55;31.30;95.90
19972;DHT22;10147;16.402;102.848;2023-11-21T09:18:24;31.30;96.70
19972;DHT22;10147;16.402;102.848;2023-11-21T09:20:54;31.00;96.70
19972;DHT22;10147;16.402;102.848;2023-11-21T09:23:25;30.80;97.10
19972;DHT22;10147;16.402;102.848;2023-11-21T09:25:55;30.80;96.80
19972;DHT22;10147;16.402;102.848;2023-11-21T09:28:26;31.00;97.30
19972;DHT22;10147;16.402;102.848;2023-11-21T09:30:56;31.10;97.40
19972;DHT22;10147;16.402;102.848;2023-11-21T09:33:27;31.00;96.70
19972;DHT22;10147;16.402;102.848;2023-11-21T09:35:57;30.90;97.30
19972;DHT22;10147;16.402;102.848;2023-11-21T09:38:27;30.50;95.90
19972;DHT22;10147;16.402;102.848;2023-11-21T09:40:58;30.40;97.00
19972;DHT22;10147;16.402;102.848;2023-11-21T09:43:30;30.60;96.70
19972;DHT22;10147;16.402;102.848;2023-11-21T09:46:05;30.40;97.60
19972;DHT22;10147;16.402;102.848;2023-11-21T09:48:40;30.40;97.00
19972;DHT22;10147;16.402;102.848;2023-11-21T09:51:11;30.50;97.00
19972;DHT22;10147;16.402;102.848;2023-11-21T09:53:42;30.40;97.50
19972;DHT22;10147;16.402;102.848;2023-11-21T09:56:14;30.50;97.30
19972;DHT22;10147;16.402;102.848;2023-11-21T09:58:51;30.30;97.60
19972;DHT22;10147;16.402;102.848;2023-11-21T10:01:27;30.10;97.80
19972;DHT22;10147;16.402;102.848;2023-11-21T10:03:58;30.00;97.20
19972;DHT22;10147;16.402;102.848;2023-11-21T10:06:29;29.80;98.20
19972;DHT22;10147;16.402;102.848;2023-11-21T10:09:00;29.80;98.50
19972;DHT22;10147;16.402;102.848;2023-11-21T10:11:30;29.80;98.50
19972;DHT22;10147;16.402;102.848;2023-11-21T10:14:02;29.60;98.10
19972;DHT22;10147;16.402;102.848;2023-11-21T10:16:34;29.70;98.50
19972;DHT22;10147;16.402;102.848;2023-11-21T10:19:05;29.60;99.40
19972;DHT22;10147;16.402;102.848;2023-11-21T10:21:39;29.50;99.10
19972;DHT22;10147;16.402;102.848;2023-11-21T10:24:09;29.50;99.30
19972;DHT22;10147;16.402;102.848;2023-11-21T10:26:40;29.50;99.80
19972;DHT22;10147;16.402;102.848;2023-11-21T10:29:20;29.50;99.90
19972;DHT22;10147;16.402;102.848;2023-11-21T10:31:51;29.60;99.90
19972;DHT22;10147;16.402;102.848;2023-11-21T10:34:25;29.60;99.90
19972;DHT22;10147;16.402;102.848;2023-11-21T10:36:57;29.50;99.90
19972;DHT22;10147;16.402;102.848;2023-11-21T10:39:27;29.50;99.90
19972;DHT22;10147;16.402;102.848;2023-11-21T10:42:00;29.40;99.90
19972;DHT22;10147;16.402;102.848;2023-11-21T10:44:30;29.30;99.90
19972;DHT22;10147;16.402;102.848;2023-11-21T10:47:02;28.90;99.90
19972;DHT22;10147;16.402;102.848;2023-11-21T10:49:32;28.90;99.90
19972;DHT22;10147;16.402;102.848;2023-11-21T10:52:02;28.70;99.90
19972;DHT22;10147;16.402;102.848;2023-11-21T10:54:33;28.70;99.90
19972;DHT22;10147;16.402;102.848;2023-11-21T10:57:05;28.80;99.90
19972;DHT22;10147;16.402;102.848;2023-11-21T10:59:37;28.80;99.90
19972;DHT22;10147;16.402;102.848;2023-11-21T11:02:24;28.90;99.90
19972;DHT22;10147;16.402;102.848;2023-11-21T11:04:57;28.90;99.90
19972;DHT22;10147;16.402;102.848;2023-11-21T11:07:28;28.80;99.90
19972;DHT22;10147;16.402;102.848;2023-11-21T11:10:00;28.80;99.90
19972;DHT22;10147;16.402;102.848;2023-11-21T11:12:31;28.80;99.90
19972;DHT22;10147;16.402;102.848;2023-11-21T11:15:02;28.70;99.90
19972;DHT22;10147;16.402;102.848;2023-11-21T11:17:37;28.70;99.90
19972;DHT22;10147;16.402;102.848;2023-11-21T11:20:14;28.60;99.90
19972;DHT22;10147;16.402;102.848;2023-11-21T11:32:40;28.20;99.90
19972;DHT22;10147;16.402;102.848;2023-11-21T11:35:42;28.20;99.90
19972;DHT22;10147;16.402;102.848;2023-11-21T11:38:18;28.00;99.90
19972;DHT22;10147;16.402;102.848;2023-11-21T11:40:52;27.90;99.90
19972;DHT22;10147;16.402;102.848;2023-11-21T11:43:27;27.90;99.90
19972;DHT22;10147;16.402;102.848;2023-11-21T11:45:59;27.90;99.90
19972;DHT22;10147;16.402;102.848;2023-11-21T11:48:29;27.90;99.90
19972;DHT22;10147;16.402;102.848;2023-11-21T11:51:19;27.80;99.90
19972;DHT22;10147;16.402;102.848;2023-11-21T11:53:52;27.70;99.90
19972;DHT22;10147;16.402;102.848;2023-11-21T11:56:25;27.70;99.90
19972;DHT22;10147;16.402;102.848;2023-11-21T11:58:57;27.70;99.90
19972;DHT22;10147;16.402;102.848;2023-11-21T12:01:28;27.70;99.90
19972;DHT22;10147;16.402;102.848;2023-11-21T12:07:01;27.60;99.90
19972;DHT22;10147;16.402;102.848;2023-11-21T12:09:33;27.50;99.90
19972;DHT22;10147;16.402;102.848;2023-11-21T12:12:03;27.50;99.90
19972;DHT22;10147;16.402;102.848;2023-11-21T12:14:36;27.20;99.90
19972;DHT22;10147;16.402;102.848;2023-11-21T12:17:07;26.70;99.90
19972;DHT22;10147;16.402;102.848;2023-11-21T12:19:38;26.80;99.90
19972;DHT22;10147;16.402;102.848;2023-11-21T12:22:08;26.50;99.90
19972;DHT22;10147;16.402;102.848;2023-11-21T12:24:38;26.40;99.90
19972;DHT22;10147;16.402;102.848;2023-11-21T12:27:08;26.50;99.90
19972;DHT22;10147;16.402;102.848;2023-11-21T12:29:40;26.40;99.90
19972;DHT22;10147;16.402;102.848;2023-11-21T12:32:11;26.60;99.90
19972;DHT22;10147;16.402;102.848;2023-11-21T12:34:41;26.80;99.90
19972;DHT22;10147;16.402;102.848;2023-11-21T12:37:12;26.80;99.90
19972;DHT22;10147;16.402;102.848;2023-11-21T12:39:41;26.80;99.90
19972;DHT22;10147;16.402;102.848;2023-11-21T12:42:12;27.00;99.90
19972;DHT22;10147;16.402;102.848;2023-11-21T12:44:42;26.90;99.90
19972;DHT22;10147;16.402;102.848;2023-11-21T12:47:17;26.80;99.90
19972;DHT22;10147;16.402;102.848;2023-11-21T12:49:51;26.80;99.90
19972;DHT22;10147;16.402;102.848;2023-11-21T12:52:21;26.40;99.90
19972;DHT22;10147;16.402;102.848;2023-11-21T12:54:51;25.90;99.90
19972;DHT22;10147;16.402;102.848;2023-11-21T12:57:25;26.30;99.90
19972;DHT22;10147;16.402;102.848;2023-11-21T12:59:57;25.80;99.90
19972;DHT22;10147;16.402;102.848;2023-11-21T13:02:29;26.10;99.90
19972;DHT22;10147;16.402;102.848;2023-11-21T13:05:00;25.80;99.90
19972;DHT22;10147;16.402;102.848;2023-11-21T13:07:45;26.10;99.90
19972;DHT22;10147;16.402;102.848;2023-11-21T13:10:17;26.20;99.90
19972;DHT22;10147;16.402;102.848;2023-11-21T13:12:47;26.30;99.90
19972;DHT22;10147;16.402;102.848;2023-11-21T13:15:17;26.30;99.90
19972;DHT22;10147;16.402;102.848;2023-11-21T13:17:47;26.30;99.90
19972;DHT22;10147;16.402;102.848;2023-11-21T13:20:18;26.30;99.90
19972;DHT22;10147;16.402;102.848;2023-11-21T13:22:54;26.20;99.90
19972;DHT22;10147;16.402;102.848;2023-11-21T13:25:27;26.20;99.90
19972;DHT22;10147;16.402;102.848;2023-11-21T13:27:58;26.20;99.90
19972;DHT22;10147;16.402;102.848;2023-11-21T13:30:31;26.00;99.90
19972;DHT22;10147;16.402;102.848;2023-11-21T13:33:05;26.10;99.90
19972;DHT22;10147;16.402;102.848;2023-11-21T13:35:39;26.00;99.90
19972;DHT22;10147;16.402;102.848;2023-11-21T13:38:18;26.00;99.90
19972;DHT22;10147;16.402;102.848;2023-11-21T13:40:53;25.80;99.90
19972;DHT22;10147;16.402;102.848;2023-11-21T13:43:24;25.80;99.90
19972;DHT22;10147;16.402;102.848;2023-11-21T13:45:55;25.90;99.90
19972;DHT22;10147;16.402;102.848;2023-11-21T13:48:40;25.90;99.90
19972;DHT22;10147;16.402;102.848;2023-11-21T13:51:20;25.90;99.90
19972;DHT22;10147;16.402;102.848;2023-11-21T13:53:59;25.80;99.90
19972;DHT22;10147;16.402;102.848;2023-11-21T13:56:30;25.70;99.90
19972;DHT22;10147;16.402;102.848;2023-11-21T13:59:01;25.60;99.90
19972;DHT22;10147;16.402;102.848;2023-11-21T14:01:40;25.70;99.90
19972;DHT22;10147;16.402;102.848;2023-11-21T14:04:29;25.70;99.90
19972;DHT22;10147;16.402;102.848;2023-11-21T14:07:19;25.70;99.90
19972;DHT22;10147;16.402;102.848;2023-11-21T14:10:09;25.70;99.90
19972;DHT22;10147;16.402;102.848;2023-11-21T14:12:44;25.60;99.90
19972;DHT22;10147;16.402;102.848;2023-11-21T14:15:15;25.60;99.90
19972;DHT22;10147;16.402;102.848;2023-11-21T14:17:48;25.60;99.90
19972;DHT22;10147;16.402;102.848;2023-11-21T14:20:19;25.60;99.90
19972;DHT22;10147;16.402;102.848;2023-11-21T14:22:53;25.50;99.90
19972;DHT22;10147;16.402;102.848;2023-11-21T14:25:34;25.40;99.90
19972;DHT22;10147;16.402;102.848;2023-11-21T14:28:04;25.40;99.90
19972;DHT22;10147;16.402;102.848;2023-11-21T14:30:35;25.30;99.90
19972;DHT22;10147;16.402;102.848;2023-11-21T14:33:06;25.30;99.90
19972;DHT22;10147;16.402;102.848;2023-11-21T14:35:38;25.40;99.90
19972;DHT22;10147;16.402;102.848;2023-11-21T14:38:09;25.40;99.90
19972;DHT22;10147;16.402;102.848;2023-11-21T14:40:40;25.40;99.90
19972;DHT22;10147;16.402;102.848;2023-11-21T14:43:10;25.30;99.90
19972;DHT22;10147;16.402;102.848;2023-11-21T14:45:40;25.30;99.90
19972;DHT22;10147;16.402;102.848;2023-11-21T14:48:11;25.10;99.90
19972;DHT22;10147;16.402;102.848;2023-11-21T14:50:58;25.10;99.90
19972;DHT22;10147;16.402;102.848;2023-11-21T14:53:48;25.10;99.90
19972;DHT22;10147;16.402;102.848;2023-11-21T14:56:24;25.10;99.90
19972;DHT22;10147;16.402;102.848;2023-11-21T14:59:00;25.20;99.90
19972;DHT22;10147;16.402;102.848;2023-11-21T15:01:36;24.90;99.90
19972;DHT22;10147;16.402;102.848;2023-11-21T15:04:15;24.90;99.90
19972;DHT22;10147;16.402;102.848;2023-11-21T15:06:58;24.90;99.90
19972;DHT22;10147;16.402;102.848;2023-11-21T15:09:28;24.80;99.90
19972;DHT22;10147;16.402;102.848;2023-11-21T15:12:09;24.80;99.90
19972;DHT22;10147;16.402;102.848;2023-11-21T15:14:47;24.90;99.90
19972;DHT22;10147;16.402;102.848;2023-11-21T15:17:19;24.80;99.90
19972;DHT22;10147;16.402;102.848;2023-11-21T15:19:56;24.80;99.90
19972;DHT22;10147;16.402;102.848;2023-11-21T15:22:26;24.60;99.90
19972;DHT22;10147;16.402;102.848;2023-11-21T15:24:58;24.70;99.90
19972;DHT22;10147;16.402;102.848;2023-11-21T15:27:29;24.80;99.90
19972;DHT22;10147;16.402;102.848;2023-11-21T15:29:59;24.70;99.90
19972;DHT22;10147;16.402;102.848;2023-11-21T15:32:29;24.70;99.90
19972;DHT22;10147;16.402;102.848;2023-11-21T15:34:59;24.80;99.90
19972;DHT22;10147;16.402;102.848;2023-11-21T15:37:29;24.80;99.90
19972;DHT22;10147;16.402;102.848;2023-11-21T15:39:59;24.70;99.90
19972;DHT22;10147;16.402;102.848;2023-11-21T15:42:30;24.70;99.90
19972;DHT22;10147;16.402;102.848;2023-11-21T15:45:01;24.60;99.90